Time;durP1;ratioP1;P1;durP2;ratioP2;P2;SDS_P1;SDS_P2;PMS_P1;PMS_P2;Temp;Humidity;BMP_temperature;BMP_pressure;BME280_temperature;BME280_humidity;BME280_pressure;Samples;Min_cycle;Max_cycle;Signal;HPM_P1;HPM_P2
2022/06/20 00:00:14;;;;;;;7.13;2.40;;;16.70;10.40;;;;;;5015960;28;20170;-90
2022/06/20 00:02:46;;;;;;;9.80;2.40;;;16.60;2.80;;;;;;5016966;28;20181;-87
2022/06/20 00:05:18;;;;;;;7.63;2.40;;;16.50;2.60;;;;;;5017123;28;20593;-89
2022/06/20 00:07:44;;;;;;;9.93;2.80;;;16.50;4.90;;;;;;5019993;28;20174;-88
2022/06/20 00:10:16;;;;;;;10.13;4.17;;;16.40;3.60;;;;;;5021190;28;20179;-91
2022/06/20 00:12:42;;;;;;;8.90;2.90;;;16.40;8.70;;;;;;5020681;28;20186;-88
2022/06/20 00:15:19;;;;;;;9.10;2.50;;;16.30;6.30;;;;;;5020813;28;20185;-92
2022/06/20 00:17:44;;;;;;;10.97;2.70;;;16.00;17.60;;;;;;5020280;28;20175;-91
2022/06/20 00:20:11;;;;;;;7.17;2.37;;;15.90;20.20;;;;;;5022280;28;20248;-92
2022/06/20 00:22:37;;;;;;;8.57;2.47;;;15.90;18.30;;;;;;5039010;28;20585;-90
2022/06/20 00:25:03;;;;;;;7.67;2.10;;;15.80;23.80;;;;;;5003864;28;20268;-89
2022/06/20 00:27:28;;;;;;;11.23;2.47;;;15.80;22.70;;;;;;5021211;28;20239;-86
2022/06/20 00:29:55;;;;;;;9.07;2.03;;;15.70;23.70;;;;;;5038123;28;20185;-91
2022/06/20 00:32:20;;;;;;;6.30;2.63;;;15.60;27.10;;;;;;5046837;28;20178;-90
2022/06/20 00:34:46;;;;;;;9.00;2.57;;;15.60;28.80;;;;;;5032207;28;20191;-88
2022/06/20 00:37:18;;;;;;;9.97;3.13;;;15.50;32.00;;;;;;5034106;28;20184;-91
2022/06/20 00:39:44;;;;;;;10.10;2.37;;;15.60;33.60;;;;;;5022646;28;20260;-89
2022/06/20 00:42:10;;;;;;;7.10;2.50;;;15.40;35.50;;;;;;5023696;28;20191;-91
2022/06/20 00:44:42;;;;;;;10.13;2.90;;;15.60;35.00;;;;;;5021827;28;20651;-90
2022/06/20 00:47:14;;;;;;;7.53;2.50;;;15.60;35.70;;;;;;5038762;28;20197;-87
2022/06/20 00:49:52;;;;;;;9.33;2.43;;;15.50;37.30;;;;;;5042456;28;20233;-87
2022/06/20 00:52:18;;;;;;;9.53;2.90;;;15.50;38.10;;;;;;5041747;28;20184;-86
2022/06/20 00:54:52;;;;;;;7.47;2.33;;;15.50;37.70;;;;;;5041365;28;20191;-87
2022/06/20 00:57:37;;;;;;;11.13;2.90;;;15.60;37.10;;;;;;5039592;28;20646;-88
2022/06/20 01:00:20;;;;;;;7.30;2.60;;;15.50;37.20;;;;;;5059241;28;20201;-88
2022/06/20 01:02:53;;;;;;;7.47;2.63;;;15.40;42.40;;;;;;5038517;28;20172;-88
2022/06/20 01:08:45;;;;;;;11.67;3.10;;;15.30;49.30;;;;;;5046789;28;20609;-87
2022/06/20 01:11:26;;;;;;;6.23;2.50;;;15.30;53.80;;;;;;5032477;28;20175;-87
2022/06/20 01:13:52;;;;;;;11.97;2.97;;;15.30;56.90;;;;;;5032652;28;20179;-86
2022/06/20 01:16:27;;;;;;;8.40;2.43;;;15.20;59.90;;;;;;5032097;28;20215;-90
2022/06/20 01:18:58;;;;;;;10.73;3.30;;;15.20;64.10;;;;;;5029968;28;20214;-88
2022/06/20 01:21:35;;;;;;;9.50;4.20;;;15.20;67.40;;;;;;5051135;28;20165;-91
2022/06/20 01:24:10;;;;;;;11.33;3.37;;;15.20;68.10;;;;;;5035696;28;20351;-86
2022/06/20 01:27:10;;;;;;;7.73;3.07;;;15.20;69.50;;;;;;5032865;28;20175;-87
2022/06/20 01:29:36;;;;;;;12.20;3.43;;;15.20;67.70;;;;;;5021201;28;20175;-92
2022/06/20 01:32:04;;;;;;;7.93;2.50;;;15.10;70.10;;;;;;5047365;28;20196;-91
2022/06/20 01:34:31;;;;;;;13.33;3.87;;;15.10;72.30;;;;;;5034805;28;20190;-92
2022/06/20 01:39:51;;;;;;;7.50;3.00;;;15.10;72.50;;;;;;5054762;28;20247;-90
2022/06/20 01:42:20;;;;;;;10.87;3.50;;;15.00;74.90;;;;;;5039362;28;20181;-92
2022/06/20 01:45:05;;;;;;;10.20;3.40;;;15.00;75.60;;;;;;5040730;28;20199;-91
2022/06/20 01:47:32;;;;;;;15.13;3.60;;;15.00;75.80;;;;;;5039862;28;20200;-86
2022/06/20 01:50:06;;;;;;;9.80;2.57;;;15.00;75.50;;;;;;5056498;28;20209;-88
2022/06/20 01:52:45;;;;;;;10.00;2.80;;;15.00;76.40;;;;;;5039472;28;20176;-88
2022/06/20 01:55:22;;;;;;;8.60;3.37;;;14.90;76.10;;;;;;5048707;28;20305;-87
2022/06/20 01:57:54;;;;;;;13.40;3.40;;;14.80;77.70;;;;;;5018807;28;20171;-85
2022/06/20 02:00:23;;;;;;;11.30;2.97;;;14.80;79.00;;;;;;5018092;28;20194;-85
2022/06/20 02:02:59;;;;;;;11.03;3.43;;;14.80;79.30;;;;;;5018039;28;20653;-86
2022/06/20 02:05:31;;;;;;;9.67;2.93;;;14.70;80.10;;;;;;5018492;28;20182;-85
2022/06/20 02:08:00;;;;;;;8.50;3.17;;;14.70;80.10;;;;;;5022058;28;20179;-85
2022/06/20 02:10:42;;;;;;;9.67;3.13;;;14.80;79.20;;;;;;5034106;28;20213;-86
2022/06/20 02:13:13;;;;;;;8.40;2.87;;;14.80;78.70;;;;;;5025840;28;20181;-90
2022/06/20 02:15:43;;;;;;;10.50;3.13;;;14.80;78.10;;;;;;5039596;28;20248;-90
2022/06/20 02:18:11;;;;;;;10.00;3.13;;;14.90;77.20;;;;;;5020752;28;20199;-92
2022/06/20 02:20:45;;;;;;;11.67;3.50;;;14.70;77.00;;;;;;5021344;28;20174;-89
2022/06/20 02:23:15;;;;;;;8.43;2.70;;;14.80;78.10;;;;;;5021955;28;20630;-91
2022/06/20 02:25:43;;;;;;;7.73;2.93;;;14.80;76.00;;;;;;5020265;28;20165;-91
2022/06/20 02:28:16;;;;;;;7.77;2.80;;;14.70;76.20;;;;;;5016451;28;20184;-89
2022/06/20 02:30:42;;;;;;;12.10;2.70;;;14.70;77.90;;;;;;5041516;28;20181;-89
2022/06/20 02:33:15;;;;;;;11.43;2.80;;;14.60;77.40;;;;;;5046054;28;20175;-90
2022/06/20 02:35:41;;;;;;;8.70;2.50;;;14.60;78.40;;;;;;5023772;28;20171;-88
2022/06/20 02:38:07;;;;;;;10.93;3.17;;;14.60;80.40;;;;;;5019112;28;20178;-88
2022/06/20 02:40:33;;;;;;;9.43;2.83;;;14.60;78.60;;;;;;5018277;28;20672;-86
2022/06/20 02:43:21;;;;;;;8.63;2.33;;;14.60;77.60;;;;;;5017314;28;20170;-86
2022/06/20 02:45:47;;;;;;;7.03;2.47;;;14.50;77.10;;;;;;5017469;28;20178;-85
2022/06/20 02:48:15;;;;;;;9.00;2.67;;;14.50;77.60;;;;;;5034999;28;20180;-86
2022/06/20 02:50:48;;;;;;;7.37;2.23;;;14.40;79.20;;;;;;5017554;28;20193;-87
2022/06/20 02:53:39;;;;;;;8.60;2.57;;;14.50;76.40;;;;;;5016929;28;20541;-87
2022/06/20 02:56:08;;;;;;;6.27;2.60;;;14.50;75.50;;;;;;5007891;28;20249;-85
2022/06/20 02:58:38;;;;;;;11.53;2.60;;;14.50;75.20;;;;;;5016497;28;20304;-87
2022/06/20 03:01:11;;;;;;;10.30;2.40;;;14.50;74.40;;;;;;5017439;28;20175;-85
2022/06/20 03:03:42;;;;;;;6.87;2.83;;;14.50;73.20;;;;;;5018613;28;20205;-85
2022/06/20 03:06:14;;;;;;;13.40;3.07;;;14.60;70.60;;;;;;5019904;28;20704;-85
2022/06/20 03:08:41;;;;;;;6.90;2.47;;;14.60;70.00;;;;;;5018954;28;20204;-84
2022/06/20 03:11:11;;;;;;;5.87;2.10;;;14.60;69.50;;;;;;5036354;28;20171;-86
2022/06/20 03:13:39;;;;;;;7.97;2.70;;;14.60;67.10;;;;;;5018607;28;20178;-87
2022/06/20 03:16:06;;;;;;;7.13;2.47;;;14.70;68.10;;;;;;5018399;28;20179;-87
2022/06/20 03:18:39;;;;;;;7.70;2.20;;;14.60;66.70;;;;;;5019124;28;20233;-84
2022/06/20 03:21:05;;;;;;;6.30;1.83;;;14.70;68.30;;;;;;5038919;28;20231;-87
2022/06/20 03:23:34;;;;;;;6.00;1.90;;;14.70;64.60;;;;;;5039330;28;20171;-86
2022/06/20 03:26:03;;;;;;;6.53;2.10;;;14.60;65.50;;;;;;5038654;28;20175;-85
2022/06/20 03:28:31;;;;;;;9.37;2.10;;;14.60;64.30;;;;;;5040294;28;20160;-87
2022/06/20 03:30:59;;;;;;;8.30;2.40;;;14.80;63.30;;;;;;5040439;28;20184;-85
2022/06/20 03:33:25;;;;;;;7.53;2.00;;;14.60;63.10;;;;;;5038476;28;20237;-87
2022/06/20 03:35:55;;;;;;;8.17;2.20;;;14.60;65.60;;;;;;5033238;28;20177;-86
2022/06/20 03:38:25;;;;;;;10.33;2.70;;;14.60;65.20;;;;;;5033792;28;20764;-85
2022/06/20 03:40:53;;;;;;;8.27;2.33;;;14.60;68.50;;;;;;5046572;28;20630;-85
2022/06/20 03:43:39;;;;;;;8.53;2.47;;;14.70;67.30;;;;;;5021239;28;20245;-86
2022/06/20 03:46:23;;;;;;;8.13;2.03;;;14.60;64.90;;;;;;5021208;28;20168;-86
2022/06/20 03:49:03;;;;;;;7.93;2.10;;;14.60;64.10;;;;;;5038631;28;20226;-87
2022/06/20 03:51:40;;;;;;;7.13;2.17;;;14.60;64.30;;;;;;5022233;28;20207;-88
2022/06/20 03:54:15;;;;;;;7.27;2.50;;;14.50;65.80;;;;;;5021711;28;20229;-87
2022/06/20 03:56:47;;;;;;;7.63;2.27;;;14.50;68.60;;;;;;5020563;28;20225;-87
2022/06/20 03:59:35;;;;;;;9.63;2.27;;;14.60;66.90;;;;;;5021139;28;20686;-88
2022/06/20 04:02:12;;;;;;;7.20;2.00;;;14.60;64.60;;;;;;5021631;28;20240;-87
2022/06/20 04:04:48;;;;;;;5.63;1.90;;;14.50;66.00;;;;;;5038708;28;20170;-86
2022/06/20 04:07:54;;;;;;;6.60;2.10;;;14.50;68.50;;;;;;5019702;28;20587;-85
2022/06/20 04:13:49;;;;;;;9.70;2.80;;;14.50;69.50;;;;;;5038383;28;20188;-85
2022/06/20 04:16:32;;;;;;;8.77;3.00;;;14.60;70.80;;;;;;4993013;28;20202;-86
2022/06/20 04:19:06;;;;;;;5.77;2.20;;;14.60;71.90;;;;;;5022051;28;20214;-87
2022/06/20 04:21:47;;;;;;;5.87;1.93;;;14.60;67.50;;;;;;5019343;28;20208;-88
2022/06/20 04:24:21;;;;;;;5.87;1.93;;;14.70;68.10;;;;;;5020856;28;20253;-85
2022/06/20 04:27:10;;;;;;;7.53;2.00;;;14.70;68.70;;;;;;5054332;28;20194;-85
2022/06/20 04:29:50;;;;;;;7.43;2.20;;;14.60;70.60;;;;;;5034514;28;20177;-84
2022/06/20 04:32:27;;;;;;;9.67;2.50;;;14.70;72.10;;;;;;5025668;28;20184;-87
2022/06/20 04:35:04;;;;;;;10.77;2.23;;;14.70;74.00;;;;;;5029898;28;20183;-88
2022/06/20 04:37:41;;;;;;;7.93;1.93;;;14.80;75.60;;;;;;5017281;28;20231;-87
2022/06/20 04:40:32;;;;;;;10.50;3.57;;;14.70;74.20;;;;;;5020140;28;20649;-88
2022/06/20 04:43:21;;;;;;;8.13;2.37;;;14.80;74.80;;;;;;5019394;28;20179;-88
2022/06/20 04:46:01;;;;;;;7.23;2.17;;;14.80;71.50;;;;;;5040424;28;20166;-86
2022/06/20 04:48:28;;;;;;;6.70;2.30;;;14.60;75.10;;;;;;5026894;28;20195;-88
2022/06/20 04:50:58;;;;;;;8.83;2.37;;;14.50;80.90;;;;;;5032006;28;20722;-84
2022/06/20 04:53:31;;;;;;;8.63;2.67;;;14.60;80.30;;;;;;5036760;28;20166;-86
2022/06/20 04:56:02;;;;;;;7.90;2.57;;;14.50;78.40;;;;;;5038503;28;20178;-86
2022/06/20 04:58:38;;;;;;;7.47;2.90;;;14.50;80.50;;;;;;5043306;28;20234;-86
2022/06/20 05:01:08;;;;;;;7.57;3.33;;;14.50;81.20;;;;;;5059832;28;20176;-83
2022/06/20 05:03:41;;;;;;;9.20;2.80;;;14.50;83.00;;;;;;5043308;28;20162;-86
2022/06/20 05:06:18;;;;;;;9.67;2.73;;;14.50;83.70;;;;;;5042990;28;20205;-89
2022/06/20 05:09:22;;;;;;;9.07;2.60;;;14.60;82.30;;;;;;5035787;28;20169;-87
2022/06/20 05:12:10;;;;;;;10.43;3.37;;;14.50;80.40;;;;;;5025765;28;20597;-88
2022/06/20 05:14:47;;;;;;;7.90;2.90;;;14.50;81.80;;;;;;5027025;28;20653;-88
2022/06/20 05:17:27;;;;;;;11.37;3.40;;;14.50;81.00;;;;;;5041676;28;20163;-92
2022/06/20 05:19:59;;;;;;;9.57;3.67;;;14.30;82.00;;;;;;5029334;28;20207;-88
2022/06/20 05:22:37;;;;;;;11.43;2.93;;;14.50;81.90;;;;;;5040394;28;20174;-89
2022/06/20 05:25:08;;;;;;;8.80;2.83;;;14.60;79.70;;;;;;5035680;28;20712;-91
2022/06/20 05:27:57;;;;;;;7.97;3.17;;;14.60;79.00;;;;;;5045615;28;20172;-89
2022/06/20 05:30:29;;;;;;;8.13;2.90;;;14.50;78.00;;;;;;5025323;28;20266;-89
2022/06/20 05:32:59;;;;;;;10.07;3.20;;;14.60;76.00;;;;;;5022120;28;20197;-91
2022/06/20 05:35:35;;;;;;;10.13;3.17;;;14.60;76.80;;;;;;5022207;28;20223;-90
2022/06/20 05:38:23;;;;;;;8.80;2.83;;;14.60;76.00;;;;;;5021242;28;20253;-87
2022/06/20 05:40:57;;;;;;;8.10;2.80;;;14.60;75.10;;;;;;5021933;28;20175;-90
2022/06/20 05:43:23;;;;;;;8.00;2.97;;;14.70;73.20;;;;;;5020997;28;20690;-91
2022/06/20 05:46:03;;;;;;;9.37;2.80;;;14.70;71.60;;;;;;5025268;28;20174;-88
2022/06/20 05:49:03;;;;;;;10.70;2.77;;;14.70;71.10;;;;;;5025527;28;20176;-93
2022/06/20 05:51:31;;;;;;;8.57;2.87;;;14.80;70.50;;;;;;5025466;28;20174;-95
2022/06/20 05:54:10;;;;;;;11.27;3.13;;;14.80;69.70;;;;;;5024891;28;20175;-94
2022/06/20 05:56:42;;;;;;;8.33;2.87;;;14.70;72.30;;;;;;5028268;28;20176;-92
2022/06/20 05:59:25;;;;;;;7.63;3.20;;;14.80;70.60;;;;;;5014672;28;20207;-90
2022/06/20 06:01:54;;;;;;;6.77;2.57;;;14.80;68.10;;;;;;5030194;28;20175;-90
2022/06/20 06:04:41;;;;;;;10.03;2.70;;;14.80;69.90;;;;;;5037553;28;20206;-88
2022/06/20 06:07:14;;;;;;;7.50;2.70;;;14.80;66.10;;;;;;5020401;28;20198;-92
2022/06/20 06:09:59;;;;;;;9.53;2.80;;;14.90;61.70;;;;;;5020159;28;20498;-88
2022/06/20 06:12:51;;;;;;;9.03;2.77;;;15.00;59.50;;;;;;5017695;28;20181;-86
2022/06/20 06:15:36;;;;;;;5.97;2.13;;;14.90;55.50;;;;;;5028838;28;20174;-92
2022/06/20 06:18:08;;;;;;;7.53;2.67;;;14.90;54.30;;;;;;5036937;28;20202;-89
2022/06/20 06:20:37;;;;;;;8.30;2.57;;;14.90;58.90;;;;;;5036885;28;20188;-89
2022/06/20 06:23:08;;;;;;;10.03;2.80;;;15.00;57.80;;;;;;5023809;28;20167;-86
2022/06/20 06:25:44;;;;;;;7.50;2.30;;;15.10;55.50;;;;;;5055981;28;20269;-87
2022/06/20 06:28:17;;;;;;;6.77;2.50;;;15.00;53.90;;;;;;5020273;28;20185;-89
2022/06/20 06:30:51;;;;;;;7.60;2.13;;;14.80;56.40;;;;;;5032132;28;20187;-89
2022/06/20 06:33:35;;;;;;;13.60;3.30;;;14.80;61.60;;;;;;5050336;28;20178;-85
2022/06/20 06:36:17;;;;;;;7.10;2.40;;;14.60;73.70;;;;;;5033075;28;20262;-88
2022/06/20 06:39:09;;;;;;;9.43;2.87;;;14.70;72.00;;;;;;5033693;28;20253;-90
2022/06/20 06:41:41;;;;;;;11.73;3.10;;;14.70;78.10;;;;;;5032127;28;20187;-88
2022/06/20 06:44:33;;;;;;;9.60;2.33;;;14.70;75.60;;;;;;5028121;28;20229;-87
2022/06/20 06:47:00;;;;;;;9.97;2.47;;;14.70;75.00;;;;;;5029462;28;20224;-86
2022/06/20 06:49:40;;;;;;;8.30;3.13;;;14.80;76.20;;;;;;5045804;28;20262;-87
2022/06/20 06:52:37;;;;;;;9.73;2.93;;;14.80;79.90;;;;;;5032339;28;20182;-88
2022/06/20 06:55:22;;;;;;;9.83;3.23;;;14.80;72.70;;;;;;5039297;28;20158;-86
2022/06/20 06:58:10;;;;;;;7.67;2.27;;;14.80;66.30;;;;;;5039645;28;20247;-90
2022/06/20 07:00:41;;;;;;;9.43;3.13;;;14.90;71.70;;;;;;5022867;28;20191;-88
2022/06/20 07:03:28;;;;;;;10.10;2.73;;;15.00;70.10;;;;;;5038586;28;20196;-90
2022/06/20 07:06:06;;;;;;;6.60;2.73;;;15.20;68.10;;;;;;5057326;28;20162;-89
2022/06/20 07:08:57;;;;;;;9.73;2.60;;;15.30;67.10;;;;;;5037134;28;20174;-85
2022/06/20 07:11:26;;;;;;;6.47;2.30;;;15.40;54.80;;;;;;5039388;28;20187;-90
2022/06/20 07:14:22;;;;;;;6.37;2.20;;;15.30;39.10;;;;;;5039464;28;20172;-85
2022/06/20 07:16:55;;;;;;;6.70;2.30;;;15.30;42.90;;;;;;5031570;28;20209;-91
2022/06/20 07:19:26;;;;;;;11.57;2.60;;;15.30;37.40;;;;;;5039320;28;20244;-86
2022/06/20 07:21:53;;;;;;;4.90;1.97;;;15.40;38.40;;;;;;5023780;28;20176;-94
2022/06/20 07:24:24;;;;;;;10.53;3.00;;;15.60;36.70;;;;;;5032995;28;20174;-93
2022/06/20 07:27:02;;;;;;;10.17;2.40;;;15.70;30.40;;;;;;5036413;28;20194;-90
2022/06/20 07:29:37;;;;;;;7.37;2.60;;;15.70;17.70;;;;;;5038591;28;20207;-87
2022/06/20 07:32:41;;;;;;;7.77;2.83;;;15.70;14.90;;;;;;5039092;28;20185;-91
2022/06/20 07:35:21;;;;;;;6.90;1.90;;;15.90;14.40;;;;;;4955907;29;20187;-90
2022/06/20 07:38:10;;;;;;;9.93;2.23;;;15.80;1.00;;;;;;5027876;28;20181;-87
2022/06/20 07:40:42;;;;;;;8.17;2.47;;;15.70;6.20;;;;;;5036058;28;20171;-89
2022/06/20 07:43:33;;;;;;;7.93;2.47;;;15.70;1.50;;;;;;5036157;28;20231;-88
2022/06/20 07:46:12;;;;;;;6.93;2.10;;;15.80;12.60;;;;;;5055017;28;20176;-91
2022/06/20 07:48:40;;;;;;;9.20;2.20;;;16.00;4.60;;;;;;5039512;28;20197;-90
2022/06/20 07:51:21;;;;;;;7.90;2.43;;;16.10;11.80;;;;;;5057649;28;20193;-92
2022/06/20 07:54:02;;;;;;;5.00;1.70;;;16.20;4.40;;;;;;5057441;28;20180;-89
2022/06/20 07:56:51;;;;;;;7.70;2.37;;;16.20;1.00;;;;;;5040605;28;20181;-87
2022/06/20 07:59:27;;;;;;;5.40;2.00;;;16.20;1.00;;;;;;5040259;28;20197;-88
2022/06/20 08:02:15;;;;;;;9.93;2.43;;;16.20;1.00;;;;;;5038455;28;20189;-87
2022/06/20 08:04:45;;;;;;;9.73;2.63;;;16.10;1.00;;;;;;5038508;28;20188;-88
2022/06/20 08:10:48;;;;;;;10.67;2.50;;;16.20;1.00;;;;;;5044961;28;20173;-87
2022/06/20 08:16:41;;;;;;;5.87;2.70;;;16.50;1.00;;;;;;5052584;28;20196;-86
2022/06/20 08:19:59;;;;;;;8.93;2.67;;;16.60;1.00;;;;;;5052145;28;20197;-86
2022/06/20 08:22:59;;;;;;;5.90;2.00;;;16.60;1.00;;;;;;5033194;28;20233;-86
2022/06/20 08:25:32;;;;;;;6.40;2.20;;;16.70;1.00;;;;;;5010417;28;20188;-86
2022/06/20 08:28:23;;;;;;;5.37;1.80;;;16.90;1.00;;;;;;5046621;28;20621;-87
2022/06/20 08:30:57;;;;;;;6.87;2.17;;;16.80;1.00;;;;;;5029049;28;20634;-89
2022/06/20 08:34:02;;;;;;;5.57;2.10;;;16.80;1.00;;;;;;5030074;28;20188;-86
2022/06/20 08:36:49;;;;;;;9.47;2.50;;;17.00;1.00;;;;;;4998529;28;20224;-87
2022/06/20 08:39:26;;;;;;;13.80;3.13;;;17.10;1.00;;;;;;5040206;28;20217;-87
2022/06/20 08:42:31;;;;;;;7.90;3.00;;;17.20;1.00;;;;;;5043369;28;20176;-86
2022/06/20 08:45:26;;;;;;;9.27;2.57;;;17.20;1.00;;;;;;5034919;28;20180;-86
2022/06/20 08:47:57;;;;;;;5.13;1.90;;;17.40;1.00;;;;;;5029076;28;20193;-85
2022/06/20 08:53:57;;;;;;;7.13;2.13;;;17.30;1.00;;;;;;5044039;28;20307;-87
2022/06/20 08:59:48;;;;;;;9.10;2.50;;;17.50;1.00;;;;;;5021178;28;20297;-86
2022/06/20 09:02:51;;;;;;;9.07;2.60;;;17.60;1.00;;;;;;5019218;28;20214;-88
2022/06/20 09:05:54;;;;;;;5.73;2.10;;;17.70;1.00;;;;;;5015322;28;20181;-87
2022/06/20 09:08:47;;;;;;;5.10;2.03;;;17.70;1.00;;;;;;5018166;28;20202;-87
2022/06/20 09:11:32;;;;;;;8.33;2.23;;;17.60;1.00;;;;;;5002928;28;20178;-92
2022/06/20 09:14:31;;;;;;;7.77;2.87;;;17.40;1.00;;;;;;5003644;28;20261;-93
2022/06/20 09:17:33;;;;;;;6.90;2.90;;;17.40;1.00;;;;;;5016745;28;20195;-90
2022/06/20 09:20:36;;;;;;;6.63;2.33;;;17.50;1.00;;;;;;4947242;29;20338;-91
2022/06/20 09:23:22;;;;;;;8.57;2.10;;;17.80;1.00;;;;;;4946118;29;20191;-91
2022/06/20 09:26:09;;;;;;;7.60;1.97;;;17.70;1.00;;;;;;5024199;28;20595;-87
2022/06/20 09:29:24;;;;;;;5.37;1.87;;;17.70;1.00;;;;;;5024178;28;20186;-91
2022/06/20 09:32:01;;;;;;;7.50;2.40;;;17.70;1.00;;;;;;4997263;28;20209;-90
2022/06/20 09:34:58;;;;;;;5.30;1.80;;;17.70;1.00;;;;;;5031790;28;20586;-91
2022/06/20 09:41:14;;;;;;;4.53;1.73;;;17.70;1.00;;;;;;5044586;28;20181;-91
2022/06/20 09:43:59;;;;;;;5.17;1.80;;;17.80;1.00;;;;;;5024022;28;20188;-91
2022/06/20 09:47:03;;;;;;;5.90;2.20;;;18.00;1.00;;;;;;5022613;28;20172;-91
2022/06/20 09:50:03;;;;;;;4.77;1.73;;;18.10;1.00;;;;;;5022454;28;20221;-93
2022/06/20 09:52:49;;;;;;;5.63;2.03;;;18.30;1.00;;;;;;5021869;28;20186;-89
2022/06/20 09:55:18;;;;;;;6.57;1.80;;;18.50;1.00;;;;;;5022879;28;20188;-94
2022/06/20 09:58:18;;;;;;;6.93;2.03;;;18.40;1.00;;;;;;5037952;28;20249;-90
2022/06/20 10:00:56;;;;;;;7.07;2.37;;;18.60;1.00;;;;;;5024816;28;20197;-94
2022/06/20 10:03:38;;;;;;;5.80;1.90;;;19.00;1.00;;;;;;5040171;28;20235;-90
2022/06/20 10:06:24;;;;;;;4.77;1.97;;;19.40;99.90;;;;;;5021580;28;20545;-88
2022/06/20 10:08:59;;;;;;;5.53;2.00;;;19.50;99.90;;;;;;5023092;28;20254;-87
2022/06/20 10:11:52;;;;;;;4.53;2.33;;;19.40;99.90;;;;;;5021220;28;20211;-90
2022/06/20 10:14:37;;;;;;;4.90;2.40;;;19.00;99.90;;;;;;5023111;28;20529;-90
2022/06/20 10:17:23;;;;;;;6.07;2.17;;;18.80;99.90;;;;;;5024589;28;20236;-88
2022/06/20 10:20:06;;;;;;;6.97;2.47;;;18.70;99.90;;;;;;5022739;28;20277;-88
2022/06/20 10:22:48;;;;;;;6.10;2.70;;;18.70;99.90;;;;;;5023434;28;20235;-87
2022/06/20 10:25:35;;;;;;;5.50;2.83;;;18.60;99.90;;;;;;5025832;28;20273;-87
2022/06/20 10:28:22;;;;;;;5.50;2.20;;;18.90;99.90;;;;;;5021443;28;20701;-87
2022/06/20 10:30:50;;;;;;;6.17;2.27;;;19.10;99.90;;;;;;5022001;28;20178;-89
2022/06/20 10:33:48;;;;;;;4.70;2.50;;;19.60;99.90;;;;;;5022239;28;20217;-90
2022/06/20 10:36:31;;;;;;;6.93;2.40;;;19.60;68.40;;;;;;5021514;28;20221;-91
2022/06/20 10:39:10;;;;;;;6.90;2.80;;;20.10;99.90;;;;;;5042475;28;20261;-88
2022/06/20 10:41:42;;;;;;;11.13;3.07;;;20.10;1.00;;;;;;5035784;28;20189;-89
2022/06/20 10:44:27;;;;;;;6.33;2.47;;;20.10;1.00;;;;;;5038818;28;20183;-89
2022/06/20 10:47:07;;;;;;;5.43;3.03;;;20.00;1.00;;;;;;5035746;28;20254;-88
2022/06/20 10:50:20;;;;;;;7.20;2.83;;;19.60;99.90;;;;;;5021321;28;20657;-88
2022/06/20 10:53:05;;;;;;;4.50;2.87;;;19.20;99.90;;;;;;4960897;28;20190;-89
2022/06/20 10:55:47;;;;;;;5.80;2.63;;;19.10;99.90;;;;;;5015933;28;20704;-88
2022/06/20 11:07:09;;;;;;;5.10;2.50;;;20.40;1.00;;;;;;5076821;23;20234;-87
2022/06/20 11:10:27;;;;;;;4.30;3.10;;;20.20;99.90;;;;;;5052572;28;20263;-87
2022/06/20 11:13:19;;;;;;;6.63;3.07;;;19.70;1.00;;;;;;5037026;28;20172;-87
2022/06/20 11:15:54;;;;;;;6.83;3.37;;;19.60;1.00;;;;;;5035649;28;20164;-87
2022/06/20 11:18:44;;;;;;;7.50;3.27;;;19.60;1.00;;;;;;5016833;28;20174;-85
2022/06/20 11:21:41;;;;;;;7.87;3.67;;;19.50;99.90;;;;;;5016159;28;20210;-87
2022/06/20 11:24:43;;;;;;;5.17;2.90;;;19.80;99.90;;;;;;5032065;28;20178;-87
2022/06/20 11:27:32;;;;;;;6.60;2.77;;;20.10;1.00;;;;;;5039595;28;20187;-88
2022/06/20 11:30:24;;;;;;;7.20;3.20;;;20.50;1.00;;;;;;5040471;28;20175;-86
2022/06/20 11:33:17;;;;;;;6.80;3.00;;;20.70;99.90;;;;;;5057842;28;20168;-89
2022/06/20 11:41:32;;;;;;;7.43;3.40;;;20.10;1.00;;;;;;5050486;28;20210;-88
2022/06/20 11:44:26;;;;;;;7.70;3.13;;;20.20;99.90;;;;;;5029001;28;20239;-90
2022/06/20 11:47:19;;;;;;;9.23;3.80;;;20.40;99.90;;;;;;5035302;28;20164;-89
2022/06/20 11:50:07;;;;;;;6.23;3.30;;;20.30;1.00;;;;;;5027275;28;20198;-88
2022/06/20 11:52:46;;;;;;;9.10;3.33;;;20.10;1.00;;;;;;5049355;28;20183;-88
2022/06/20 11:55:25;;;;;;;6.07;3.13;;;20.20;99.90;;;;;;5029397;28;20186;-88
2022/06/20 11:58:12;;;;;;;5.73;3.27;;;20.20;99.90;;;;;;5030590;28;20202;-91
2022/06/20 12:01:14;;;;;;;7.87;3.27;;;20.20;1.00;;;;;;5027910;28;20191;-91
2022/06/20 12:04:06;;;;;;;6.40;2.93;;;20.20;99.90;;;;;;5045208;28;20211;-89
2022/06/20 12:06:55;;;;;;;6.20;3.40;;;20.20;99.90;;;;;;5010052;28;20192;-88
2022/06/20 12:09:42;;;;;;;6.83;3.20;;;20.50;99.90;;;;;;5018017;28;20200;-89
2022/06/20 12:12:38;;;;;;;7.37;3.30;;;20.30;1.00;;;;;;5033064;28;20172;-89
2022/06/20 12:15:40;;;;;;;4.97;2.90;;;20.10;96.00;;;;;;5035688;28;20697;-86
2022/06/20 12:18:22;;;;;;;5.77;3.43;;;19.80;99.90;;;;;;5056042;28;20206;-92
2022/06/20 12:23:50;;;;;;;6.60;2.90;;;19.90;1.00;;;;;;5048254;28;20176;-94
2022/06/20 12:26:31;;;;;;;8.77;3.47;;;20.10;99.90;;;;;;5048476;28;20205;-91
2022/06/20 12:29:00;;;;;;;6.57;2.70;;;20.50;1.00;;;;;;5045675;28;20175;-91
2022/06/20 12:31:36;;;;;;;8.37;3.27;;;20.70;1.00;;;;;;5031527;28;20181;-89
2022/06/20 12:34:21;;;;;;;7.57;2.90;;;20.60;1.00;;;;;;5032054;28;20256;-89
2022/06/20 12:37:17;;;;;;;8.20;3.53;;;20.20;1.00;;;;;;5032824;28;20184;-91
2022/06/20 12:40:06;;;;;;;7.13;3.73;;;20.10;99.90;;;;;;5048929;28;20253;-88
2022/06/20 12:42:39;;;;;;;4.37;3.00;;;20.50;1.00;;;;;;5033544;28;20164;-86
2022/06/20 12:45:36;;;;;;;7.40;3.80;;;20.80;1.00;;;;;;5053695;28;20169;-88
2022/06/20 12:48:17;;;;;;;9.30;3.57;;;20.60;1.00;;;;;;5040539;28;20219;-88
2022/06/20 12:50:51;;;;;;;5.57;3.23;;;20.50;1.00;;;;;;5059164;28;20161;-88
2022/06/20 12:53:36;;;;;;;8.20;3.53;;;20.30;1.00;;;;;;5037633;28;20176;-90
2022/06/20 12:56:40;;;;;;;8.53;3.50;;;20.40;1.00;;;;;;5057978;28;20179;-87
2022/06/20 12:59:20;;;;;;;8.00;3.43;;;20.60;1.00;;;;;;5042974;28;20261;-88
2022/06/20 13:02:08;;;;;;;10.00;3.73;;;20.60;99.90;;;;;;5025438;28;20187;-87
2022/06/20 13:04:49;;;;;;;7.00;3.53;;;20.50;1.00;;;;;;5059970;28;20168;-88
2022/06/20 13:07:34;;;;;;;9.57;3.30;;;20.40;99.90;;;;;;5042663;28;20193;-89
2022/06/20 13:10:22;;;;;;;6.53;3.37;;;20.50;1.00;;;;;;5042844;28;20167;-88
2022/06/20 13:13:13;;;;;;;8.03;3.53;;;20.70;1.00;;;;;;5040138;28;20171;-90
2022/06/20 13:15:38;;;;;;;7.60;3.43;;;20.60;99.90;;;;;;5059567;28;20155;-88
2022/06/20 13:18:30;;;;;;;6.67;3.50;;;20.50;99.90;;;;;;5038522;28;20206;-90
2022/06/20 13:21:09;;;;;;;6.27;3.27;;;20.30;99.90;;;;;;5057130;28;20178;-87
2022/06/20 13:23:53;;;;;;;5.37;3.17;;;20.40;1.00;;;;;;5037307;28;20247;-88
2022/06/20 13:26:38;;;;;;;10.13;3.83;;;20.50;1.00;;;;;;5037257;28;20192;-88
2022/06/20 13:29:35;;;;;;;7.43;3.63;;;20.80;1.00;;;;;;5036317;28;20224;-88
2022/06/20 13:32:17;;;;;;;6.60;3.20;;;20.80;1.00;;;;;;5035174;28;20317;-89
2022/06/20 13:34:52;;;;;;;7.70;3.20;;;20.90;99.90;;;;;;5055515;28;20223;-89
2022/06/20 13:37:25;;;;;;;7.67;3.60;;;20.70;1.00;;;;;;5053690;28;20159;-88
2022/06/20 13:40:01;;;;;;;7.13;3.30;;;20.60;99.90;;;;;;5038735;28;20208;-87
2022/06/20 13:42:41;;;;;;;8.37;3.10;;;20.70;1.00;;;;;;5037484;28;20187;-88
2022/06/20 13:45:49;;;;;;;10.93;3.20;;;20.90;1.00;;;;;;5052624;28;20199;-87
2022/06/20 13:48:39;;;;;;;8.83;3.33;;;21.20;1.00;;;;;;5054757;28;20200;-90
2022/06/20 13:51:20;;;;;;;7.40;3.07;;;21.40;1.00;;;;;;5038052;28;20216;-88
2022/06/20 13:54:05;;;;;;;8.10;3.50;;;21.30;99.90;;;;;;5035704;28;20161;-86
2022/06/20 13:56:52;;;;;;;7.83;3.03;;;21.30;1.00;;;;;;5038716;28;20210;-88
2022/06/20 13:59:58;;;;;;;8.93;3.67;;;21.00;99.90;;;;;;5040585;28;20223;-87
2022/06/20 14:03:02;;;;;;;8.13;3.47;;;21.10;1.00;;;;;;4995086;28;20238;-87
2022/06/20 14:05:28;;;;;;;8.33;2.90;;;21.10;99.90;;;;;;5014147;28;20582;-87
2022/06/20 14:08:18;;;;;;;8.00;2.87;;;21.00;1.00;;;;;;5041149;28;20175;-89
2022/06/20 14:11:10;;;;;;;7.20;2.77;;;21.10;1.00;;;;;;5041893;28;20191;-87
2022/06/20 14:13:46;;;;;;;6.43;2.83;;;21.10;99.90;;;;;;5024011;28;20173;-91
2022/06/20 14:16:24;;;;;;;8.70;3.10;;;21.10;99.90;;;;;;5024662;28;20171;-88
2022/06/20 14:22:34;;;;;;;7.27;2.63;;;21.20;1.00;;;;;;5050743;28;20187;-91
2022/06/20 14:25:38;;;;;;;6.37;3.03;;;21.20;99.90;;;;;;5028700;28;20163;-88
2022/06/20 14:28:17;;;;;;;6.67;2.87;;;21.30;1.00;;;;;;5026668;28;20292;-88
2022/06/20 14:30:46;;;;;;;6.90;2.90;;;21.30;99.90;;;;;;5037953;28;20165;-91
2022/06/20 14:33:42;;;;;;;9.23;2.80;;;21.20;99.90;;;;;;5040281;28;20248;-89
2022/06/20 14:36:26;;;;;;;6.10;2.57;;;21.20;1.00;;;;;;5040160;28;20207;-89
2022/06/20 14:39:11;;;;;;;8.33;2.70;;;21.20;1.00;;;;;;5034204;28;20214;-88
2022/06/20 14:42:27;;;;;;;8.47;2.77;;;21.20;49.40;;;;;;5027100;28;20196;-88